Appleyard, Washington
Current Conditions -  °F | °C
As of 12:55 PM on Sunday 21 Dec 2014 (Local Time) from KEAT Reporting Station
Clear Clear  
Wind Chill: 50°   Ceiling: Unl
Heat Index: 50°   Visibility: 10mi
Dew Point: 39°   Wind: 15mph
Humidity: 66%   Direction: 320°NW
Pressure: 29.87"   Gusts: NA
Location:  47.3635°N, 120.348°W
Report Text: KEAT 212055Z AUTO 32013KT 10SM CLR 10/04 A2987 RMK AO2 PK WND 32026/2008 RAE17 SLP121 P0000 60003 T01000039 51011
Loading
Personal Weather Stations






























Interactive Weather Map New forecast layout! Learn more

10-Day Weather Forecast

Advertisements
Track Severe Weather on mobile